Happy Valentine's Day! 

Flight Track Log - Related Links

Times and Time Zones

All times are in EST time to prevent confusion due to time zone crossing. See the EJA142 flight status page for this flight to view local times or setup timezone preferences in your user account.


Time Position Orientation Groundspeed Altitude Reporting Facility
EST Latitude Longitude Course Direction KTS MPH feet Rate Location/Type
Thu 06:19:50 PM 40.7667 -73.8500 75° East 145 167 1,900  Level New York TRACON
Thu 06:20:50 PM 40.7833 -73.7667 75° East 270 311 4,900 2,700 Climbing New York TRACON
Thu 06:21:50 PM 40.8333 -73.8000 333° Northwest 269 310 7,300 2,684 Climbing New York TRACON
Thu 06:22:44 PM 40.8167 -73.8667 252° West 232 267 10,000 2,474 Climbing New York TRACON
Thu 06:23:44 PM 40.7667 -73.9333 225° Southwest 283 326 12,000 750 Climbing New York TRACON
Thu 06:26:04 PM 40.6325 -74.1292 228° Southwest 306 352 12,500 600 Climbing New York Center
Thu 06:27:04 PM 40.5350 -74.1189 175° South 306 352 14,000 1,750 Climbing New York Center
Thu 06:28:04 PM 40.4414 -74.1142 178° South 337 388 16,000 1,500 Climbing New York Center
Thu 06:29:04 PM 40.3531 -74.1400 193° South 354 407 17,000 500 Climbing New York Center
Thu 06:30:04 PM 40.2500 -74.1731 194° South 354 407 17,000 943 Level New York Center
Thu 06:31:43 PM 40.0953 -74.2219 194° South 360 414 19,500 1,698 Climbing Washington Center
Thu 06:32:43 PM 39.9978 -74.2617 197° South 360 414 21,500 2,033 Climbing Washington Center
Thu 06:33:44 PM 39.9172 -74.3364 215° Southwest 350 403 23,600 2,067 Climbing Washington Center
Thu 06:34:42 PM 39.8328 -74.4189 217° Southwest 363 418 25,600 2,000 Climbing Washington Center
Thu 06:35:44 PM 39.7567 -74.5119 223° Southwest 376 433 27,600 1,967 Climbing Washington Center
Thu 06:36:44 PM 39.6825 -74.6128 226° Southwest 381 438 29,600 2,034 Climbing Washington Center
Thu 06:37:42 PM 39.6039 -74.7136 225° Southwest 392 451 31,600 1,220 Climbing Washington Center
Thu 06:38:42 PM 39.5233 -74.8167 225° Southwest 403 464 32,000 750 Climbing Washington Center
Thu 06:39:42 PM 39.4553 -74.9117 227° Southwest 403 464 33,100 992 Climbing Washington Center
Thu 06:40:43 PM 39.3767 -75.0117 225° Southwest 403 464 34,000 443 Climbing Washington Center
Thu 06:41:44 PM 39.2978 -75.1061 223° Southwest 403 464 34,000  Level Washington Center
Thu 06:42:44 PM 39.1897 -75.1631 202° Southwest 403 464 34,000  Level Washington Center
Thu 06:43:43 PM 39.0753 -75.2039 195° South 416 479 34,000  Level Washington Center
Thu 06:44:42 PM 38.9650 -75.2553 200° South 423 487 34,000  Level Washington Center
Thu 06:45:42 PM 38.8503 -75.2983 196° South 428 493 34,000  Level Washington Center
Thu 06:46:43 PM 38.7400 -75.3494 200° South 428 493 34,000  Level Washington Center
Thu 06:47:44 PM 38.6253 -75.3950 197° South 428 493 34,000 350 Level Washington Center
Thu 06:48:43 PM 38.5128 -75.4431 198° South 428 493 34,700 958 Climbing Washington Center
Thu 06:49:43 PM 38.3919 -75.4964 199° South 441 507 35,900 645 Climbing Washington Center
Thu 06:50:44 PM 38.2522 -75.5389 193° South 464 534 36,000 50 Climbing Washington Center
Thu 06:51:42 PM 38.1125 -75.5100 171° South 476 548 36,000 203 Level Washington Center
Thu 06:52:42 PM 37.9894 -75.4917 173° South 488 562 36,400 850 Climbing Washington Center
Thu 06:53:42 PM 37.8539 -75.4603 170° South 494 568 37,700 1,289 Climbing Washington Center
Thu 06:54:43 PM 37.7247 -75.4658 182° South 486 559 39,000 1,240 Climbing Washington Center
Thu 06:55:43 PM 37.6164 -75.5289 205° Southwest 448 516 40,200 1,140 Climbing Washington Center
Thu 06:56:44 PM 37.5100 -75.5997 208° Southwest 442 509 41,300 1,059 Climbing Washington Center
Thu 06:57:42 PM 37.4014 -75.6728 208° Southwest 436 502 42,300 857 Climbing Washington Center
Thu 06:58:43 PM 37.2928 -75.7433 207° Southwest 436 502 43,000 344 Climbing Washington Center
Thu 06:59:44 PM 37.1844 -75.8133 207° Southwest 442 509 43,000  Level Washington Center
Thu 07:00:44 PM 37.0756 -75.8861 208° Southwest 442 509 43,000  Level Washington Center
Thu 07:01:43 PM 36.9483 -75.9608 205° Southwest 442 509 43,000  Level Washington Center
Thu 07:02:44 PM 36.8436 -76.0306 208° Southwest 449 517 43,000  Level Washington Center
Thu 07:03:42 PM 36.7350 -76.1000 207° Southwest 449 517 43,000  Level Washington Center
Thu 07:04:43 PM 36.6242 -76.1742 208° Southwest 449 517 43,000  Level Washington Center
Thu 07:05:43 PM 36.5172 -76.2433 207° Southwest 449 517 43,000  Level Washington Center
Thu 07:06:44 PM 36.4042 -76.3144 207° Southwest 449 517 43,000  Level Washington Center
Thu 07:07:42 PM 36.2933 -76.3831 207° Southwest 455 524 43,000  Level Washington Center
Thu 07:08:42 PM 36.1842 -76.4514 207° Southwest 455 524 43,000  Level Washington Center
Thu 07:09:43 PM 36.0731 -76.5247 208° Southwest 455 524 43,000  Level Washington Center
Thu 07:10:44 PM 35.9619 -76.5928 206° Southwest 455 524 43,000  Level Washington Center
Thu 07:11:43 PM 35.8486 -76.6631 207° Southwest 455 524 43,000  Level Washington Center
Thu 07:12:43 PM 35.7375 -76.7333 207° Southwest 455 524 43,000  Level Washington Center
Thu 07:13:44 PM 35.6283 -76.8033 208° Southwest 455 524 43,000  Level Washington Center
Thu 07:14:42 PM 35.5192 -76.8706 207° Southwest 455 524 43,000  Level Washington Center
Thu 07:15:42 PM 35.4078 -76.9403 207° Southwest 455 524 43,000  Level Washington Center
Thu 07:16:43 PM 35.2922 -77.0094 206° Southwest 455 524 43,000  Level Washington Center
Thu 07:17:44 PM 35.1808 -77.0761 206° Southwest 455 524 43,000  Level Washington Center
Thu 07:18:44 PM 35.0714 -77.1453 207° Southwest 455 524 43,000  Level Washington Center
Thu 07:19:42 PM 34.9600 -77.2142 207° Southwest 455 524 43,000  Level Washington Center
Thu 07:20:43 PM 34.8506 -77.2828 207° Southwest 455 524 43,000  Level Washington Center
Thu 07:21:43 PM 34.7536 -77.3439 207° Southwest 455 524 43,000  Level Washington Center
Thu 07:22:41 PM 34.6442 -77.4122 207° Southwest 450 518 43,000  Level Washington Center
Thu 07:23:42 PM 34.5264 -77.4675 201° Southwest 450 518 43,000  Level Washington Center
Thu 07:24:43 PM 34.4069 -77.5075 195° South 450 518 43,000  Level Washington Center
Thu 07:25:43 PM 34.2872 -77.5450 195° South 455 524 43,000  Level Washington Center
Thu 07:27:42 PM 34.0247 -77.6261 194° South 461 531 43,000  Level Jacksonville Center
Thu 07:28:42 PM 33.9014 -77.6683 196° South 462 532 43,000  Level Jacksonville Center
Thu 07:29:42 PM 33.7797 -77.7056 194° South 466 536 43,000  Level Jacksonville Center
Thu 07:30:42 PM 33.6564 -77.7453 195° South 466 536 43,000  Level Jacksonville Center
Thu 07:31:42 PM 33.5469 -77.7792 194° South 466 536 43,000 -50 Level Jacksonville Center
Thu 07:32:42 PM 33.4256 -77.8158 194° South 461 531 42,900  Descending Jacksonville Center
Thu 07:33:42 PM 33.3164 -77.8519 195° South 444 511 43,000 50 Climbing Jacksonville Center
Thu 07:34:42 PM 33.2069 -77.8856 194° South 425 489 43,000  Level Jacksonville Center
Thu 07:35:42 PM 33.0978 -77.9189 194° South 411 473 43,000  Level Jacksonville Center
Thu 07:36:42 PM 32.9864 -77.9547 195° South 411 473 43,000  Level Jacksonville Center
Thu 07:37:42 PM 32.8753 -77.9906 195° South 411 473 43,000  Level Jacksonville Center
Thu 07:38:42 PM 32.7658 -78.0236 194° South 411 473 43,000  Level Jacksonville Center
Thu 07:39:42 PM 32.6461 -78.0597 194° South 421 484 43,000  Level Jacksonville Center
Thu 07:40:42 PM 32.5247 -78.1008 196° South 445 512 43,000  Level Jacksonville Center
Thu 07:41:42 PM 32.4006 -78.1342 193° South 459 528 43,000  Level Jacksonville Center
Thu 07:42:42 PM 32.2789 -78.1725 195° South 459 528 43,000  Level Jacksonville Center
Thu 07:43:42 PM 32.1550 -78.2083 194° South 459 528 43,000  Level Jacksonville Center
Thu 07:44:42 PM 32.0233 -78.2567 197° South 464 534 43,000  Level Jacksonville Center
Thu 07:45:42 PM 31.8994 -78.2972 196° South 464 534 43,000  Level Jacksonville Center
Thu 07:46:42 PM 31.7717 -78.3378 195° South 459 528 43,000  Level Jacksonville Center
Thu 07:47:42 PM 31.6497 -78.3756 197° South 465 535 43,000  Level Jacksonville Center
Thu 07:50:42 PM 31.2742 -78.4958 195° South 470 541 43,000  Level Jacksonville Center
Thu 07:51:42 PM 31.1522 -78.5356 196° South 470 541 43,000  Level Jacksonville Center
Thu 07:52:42 PM 31.0264 -78.5753 195° South 470 541 43,000  Level Jacksonville Center
Thu 07:54:54 PM 30.7631 -78.6581 195° South 449 517 43,000  Level Miami Center
Thu 07:55:54 PM 30.6417 -78.6969 195° South 460 529 43,000  Level Miami Center
Thu 07:56:54 PM 30.5117 -78.7406 196° South 465 535 43,000  Level Miami Center
Thu 07:57:54 PM 30.3883 -78.7839 197° South 465 535 43,000  Level Miami Center
Thu 07:58:54 PM 30.2667 -78.8297 198° South 465 535 43,000  Level Miami Center
Thu 07:59:54 PM 30.1389 -78.8731 196° South 465 535 43,000  Level Miami Center
Thu 08:00:54 PM 30.0383 -78.9094 197° South 470 541 43,000  Level Miami Center
Thu 08:01:54 PM 29.9042 -78.9644 200° South 470 541 43,000  Level Miami Center
Thu 08:02:54 PM 29.7806 -79.0097 198° South 470 541 43,000 -450 Level Miami Center
Thu 08:03:54 PM 29.6444 -79.0308 188° South 484 557 42,100 -1,000 Descending Miami Center
Thu 08:04:54 PM 29.5169 -79.0522 188° South 479 551 41,000 -1,100 Descending Miami Center
Thu 08:05:54 PM 29.3853 -79.0758 189° South 479 551 39,900 -1,100 Descending Miami Center
Thu 08:06:54 PM 29.2514 -79.0969 188° South 479 551 38,800 -1,100 Descending Miami Center
Thu 08:07:54 PM 29.1258 -79.1228 190° South 479 551 37,700 -1,100 Descending Miami Center
Thu 08:08:54 PM 28.9900 -79.1439 188° South 479 551 36,600 -850 Descending Miami Center
Thu 08:09:54 PM 28.8600 -79.1694 190° South 485 558 36,000 -1,100 Descending Miami Center
Thu 08:10:54 PM 28.7283 -79.1928 189° South 485 558 34,400 -1,800 Descending Miami Center
Thu 08:11:54 PM 28.5986 -79.2161 189° South 485 558 32,400 -1,900 Descending Miami Center
Thu 08:12:54 PM 28.4731 -79.2369 188° South 474 545 30,600 -1,800 Descending Miami Center
Thu 08:13:54 PM 28.3514 -79.2606 190° South 462 532 28,800 -1,800 Descending Miami Center
Thu 08:14:54 PM 28.2300 -79.2814 189° South 450 518 27,000 -1,750 Descending Miami Center
Thu 08:15:54 PM 28.1150 -79.3025 189° South 439 505 25,300 -1,700 Descending Miami Center
Thu 08:16:54 PM 28.0039 -79.3261 191° South 426 490 23,600 -1,700 Descending Miami Center
Thu 08:17:54 PM 27.8928 -79.3447 188° South 417 480 21,900 -1,750 Descending Miami Center
Thu 08:18:54 PM 27.7756 -79.3633 188° South 392 451 20,100 -1,650 Descending Miami Center
Thu 08:19:54 PM 27.6731 -79.3822 189° South 384 442 18,600 -1,450 Descending Miami Center
Thu 08:20:54 PM 27.5725 -79.4011 189° South 378 435 17,200 -1,400 Descending Miami Center
Thu 08:21:54 PM 27.4864 -79.4272 195° South 361 415 15,800 -1,350 Descending Miami Center
Thu 08:22:54 PM 27.4244 -79.4983 226° Southwest 327 376 14,500 -1,350 Descending Miami Center
Thu 08:23:54 PM 27.3647 -79.5789 230° Southwest 312 359 13,100 -1,300 Descending Miami Center
Thu 08:24:54 PM 27.3131 -79.6503 231° Southwest 312 359 11,900 -1,200 Descending Miami Center
Thu 08:25:54 PM 27.2594 -79.7214 230° Southwest 304 350 10,700 -1,150 Descending Miami Center
Thu 08:26:54 PM 27.2125 -79.7831 229° Southwest 298 343 9,600 -1,150 Descending Miami Center
Thu 08:27:54 PM 27.1608 -79.8519 230° Southwest 293 337 8,400 -950 Descending Miami Center
Thu 08:28:54 PM 27.0931 -79.9014 213° Southwest 275 316 7,700 -700 Descending Miami Center
Thu 08:29:54 PM 27.0233 -79.9417 207° Southwest 275 316 7,000 -750 Descending Miami Center
Thu 08:30:54 PM 26.9639 -79.9775 208° Southwest 275 316 6,200 -800 Descending Miami Center
Thu 08:31:54 PM 26.9044 -80.0269 217° Southwest 275 316 5,400 -850 Descending Miami Center
Thu 08:32:54 PM 26.8406 -80.0789 216° Southwest 263 303 4,500 -700 Descending Miami Center
Thu 08:33:54 PM 26.8061 -80.1336 235° Southwest 231 266 4,000 -500 Descending Miami Center
Thu 08:35:00 PM 26.7890 -80.2714 262° West  Level FlightAware Approximate
Thu 08:42:00 PM 26.6832 -80.0956 110° East  Level Estimated
Thu 08:43:00 PM 26.6832 -80.0956 110° East  Level Estimated
Thu 08:44:00 PM 26.6832 -80.0956 110° East  Level Estimated
Thu 08:45:00 PM 26.6832 -80.0956 110° East  Level Estimated
Thu 08:46:00 PM 26.6832 -80.0956 110° East  Level Estimated
Thu 08:47:00 PM 26.6832 -80.0956 110° East  Level Estimated
Thu 08:48:00 PM 26.6832 -80.0956 110° East  Level Estimated
Thu 08:49:00 PM 26.6832 -80.0956 110° East  Level Estimated
Thu 08:50:00 PM 26.6832 -80.0956 110° East  Level Estimated
Thu 08:51:00 PM 26.6832 -80.0956 110° East  Level Estimated

Login

Don't have an account? Register now (free) for customized features, flight alerts, and more!